createdAt,value
2018-12-31T00:00:45.709Z,74.00
2018-12-31T00:01:45.699Z,74.70
2018-12-31T00:02:45.709Z,85.00
2018-12-31T00:03:45.672Z,73.30
2018-12-31T00:04:45.666Z,76.70
2018-12-31T00:05:45.672Z,103.90
2018-12-31T00:06:45.651Z,87.00
2018-12-31T00:07:45.657Z,101.40
2018-12-31T00:08:45.621Z,84.30
2018-12-31T00:09:45.611Z,77.30
2018-12-31T00:10:45.616Z,94.00
2018-12-31T00:11:45.596Z,100.40
2018-12-31T00:12:45.588Z,112.70
2018-12-31T00:13:45.596Z,110.00
2018-12-31T00:14:45.561Z,75.70
2018-12-31T00:15:45.548Z,82.50
2018-12-31T00:16:45.536Z,81.90
2018-12-31T00:17:45.524Z,72.10
2018-12-31T00:18:45.516Z,93.30
2018-12-31T00:19:45.526Z,94.60
2018-12-31T00:20:45.498Z,119.40
2018-12-31T00:21:45.484Z,108.50
2018-12-31T00:22:45.470Z,79.40
2018-12-31T00:23:45.491Z,92.00
2018-12-31T00:24:45.456Z,104.20
2018-12-31T00:25:45.442Z,85.50
2018-12-31T00:26:45.433Z,80.10
2018-12-31T00:27:45.441Z,95.50
2018-12-31T00:28:45.411Z,104.20
2018-12-31T00:29:45.448Z,90.70
2018-12-31T00:30:45.383Z,95.60
2018-12-31T00:31:45.383Z,95.40
2018-12-31T00:32:45.366Z,116.10
2018-12-31T00:33:45.359Z,93.20
2018-12-31T00:34:45.376Z,91.10
2018-12-31T00:35:45.329Z,93.80
2018-12-31T00:36:45.324Z,110.00
2018-12-31T00:37:45.337Z,121.90
2018-12-31T00:38:45.307Z,96.30
2018-12-31T00:39:45.286Z,123.80
2018-12-31T00:40:45.295Z,152.80
2018-12-31T00:41:45.266Z,113.10
2018-12-31T00:42:45.252Z,139.30
2018-12-31T00:43:45.248Z,142.20
2018-12-31T00:44:45.236Z,128.70
2018-12-31T00:45:45.254Z,151.00
2018-12-31T00:46:45.220Z,152.20
2018-12-31T00:47:45.198Z,139.40
2018-12-31T00:48:45.191Z,143.50
2018-12-31T00:49:45.191Z,160.00
2018-12-31T00:50:45.166Z,200.90
2018-12-31T00:51:45.185Z,133.40
2018-12-31T00:52:45.158Z,133.60
2018-12-31T00:53:45.156Z,145.80
2018-12-31T00:54:45.131Z,116.80
2018-12-31T00:55:45.120Z,146.60
2018-12-31T00:56:45.126Z,134.60
2018-12-31T00:57:45.098Z,116.90
2018-12-31T00:58:45.086Z,135.60
2018-12-31T00:59:45.070Z,159.20
2018-12-31T01:00:45.062Z,106.80
2018-12-31T01:01:45.076Z,113.60
2018-12-31T01:02:45.041Z,105.30
2018-12-31T01:03:45.033Z,118.50
2018-12-31T01:04:45.020Z,120.20
2018-12-31T01:05:45.009Z,159.00
2018-12-31T01:06:45.000Z,99.30
2018-12-31T01:07:45.007Z,106.80
2018-12-31T01:08:44.975Z,102.10
2018-12-31T01:09:44.966Z,112.20
2018-12-31T01:10:45.000Z,150.00
2018-12-31T01:11:44.940Z,159.00
2018-12-31T01:12:44.937Z,121.30
2018-12-31T01:13:44.945Z,133.60
2018-12-31T01:14:44.909Z,136.40
2018-12-31T01:15:44.906Z,152.80
2018-12-31T01:16:44.890Z,150.20
2018-12-31T01:17:44.882Z,154.40
2018-12-31T01:18:44.901Z,159.40
2018-12-31T01:19:44.854Z,150.40
2018-12-31T01:20:44.845Z,200.50
2018-12-31T01:21:44.835Z,134.50
2018-12-31T01:22:44.822Z,149.10
2018-12-31T01:23:44.849Z,152.60
2018-12-31T01:24:44.843Z,183.90
2018-12-31T01:25:44.794Z,215.90
2018-12-31T01:26:44.777Z,148.70
2018-12-31T01:27:44.777Z,187.70
2018-12-31T01:28:44.760Z,180.60
2018-12-31T01:29:44.750Z,152.40
2018-12-31T01:30:44.761Z,160.40
2018-12-31T01:31:44.724Z,170.00
2018-12-31T01:32:44.715Z,207.90
2018-12-31T01:33:44.707Z,180.70
2018-12-31T01:34:44.692Z,152.50
2018-12-31T01:35:44.719Z,123.40
2018-12-31T01:36:44.675Z,133.00
2018-12-31T01:37:44.667Z,125.30
2018-12-31T01:38:44.666Z,148.60
2018-12-31T01:39:44.639Z,159.30
2018-12-31T01:40:44.631Z,152.80
2018-12-31T01:41:44.642Z,161.30
2018-12-31T01:42:44.611Z,125.70
2018-12-31T01:43:44.596Z,122.90
2018-12-31T01:44:44.597Z,143.60
2018-12-31T01:45:44.578Z,115.20
2018-12-31T01:46:44.588Z,153.60
2018-12-31T01:47:44.561Z,153.20
2018-12-31T01:48:44.545Z,134.90
2018-12-31T01:49:44.537Z,120.50
2018-12-31T01:50:44.523Z,116.80
2018-12-31T01:51:44.511Z,180.90
2018-12-31T01:52:44.551Z,114.90
2018-12-31T01:53:44.485Z,117.40
2018-12-31T01:54:44.495Z,95.80
2018-12-31T01:55:44.479Z,125.00
2018-12-31T01:56:44.468Z,134.40
2018-12-31T01:57:44.472Z,112.50
2018-12-31T01:58:44.434Z,127.50
2018-12-31T01:59:44.427Z,103.20
2018-12-31T02:00:44.422Z,102.00
2018-12-31T02:01:44.413Z,119.00
2018-12-31T02:02:44.393Z,123.40
2018-12-31T02:03:52.243Z,156.80
2018-12-31T02:04:44.393Z,145.50
2018-12-31T02:05:44.356Z,137.90
2018-12-31T02:06:44.347Z,87.00
2018-12-31T02:07:44.339Z,101.70
2018-12-31T02:08:44.336Z,104.50
2018-12-31T02:09:44.410Z,126.00
2018-12-31T02:10:44.326Z,101.50
2018-12-31T02:11:44.305Z,109.70
2018-12-31T02:12:44.286Z,94.80
2018-12-31T02:13:44.278Z,100.60
2018-12-31T02:14:44.264Z,105.30
2018-12-31T02:15:44.280Z,132.10
2018-12-31T02:16:44.239Z,151.20
2018-12-31T02:17:44.243Z,135.50
2018-12-31T02:18:45.607Z,130.50
2018-12-31T02:19:44.210Z,113.10
2018-12-31T02:20:44.203Z,113.80
2018-12-31T02:21:44.213Z,151.00
2018-12-31T02:22:44.186Z,140.30
2018-12-31T02:23:44.165Z,119.50
2018-12-31T02:24:44.152Z,171.80
2018-12-31T02:25:44.150Z,148.20
2018-12-31T02:26:44.152Z,149.40
2018-12-31T02:27:44.126Z,150.50
2018-12-31T02:28:44.118Z,132.80
2018-12-31T02:29:44.102Z,162.60
2018-12-31T02:30:44.112Z,145.20
2018-12-31T02:31:44.107Z,172.60
2018-12-31T02:32:44.072Z,166.90
2018-12-31T02:33:44.066Z,181.60
2018-12-31T02:34:44.063Z,140.60
2018-12-31T02:35:44.090Z,167.80
2018-12-31T02:36:44.081Z,183.40
2018-12-31T02:37:44.017Z,186.10
2018-12-31T02:38:44.006Z,146.10
2018-12-31T02:39:43.996Z,225.80
2018-12-31T02:40:43.987Z,167.80
2018-12-31T02:41:43.977Z,158.40
2018-12-31T02:42:43.985Z,234.60
2018-12-31T02:43:44.026Z,243.40
2018-12-31T02:44:43.936Z,277.00
2018-12-31T02:45:43.951Z,312.80
2018-12-31T02:46:43.939Z,173.30
2018-12-31T02:47:43.906Z,261.00
2018-12-31T02:48:43.894Z,197.20
2018-12-31T02:49:43.888Z,273.60
2018-12-31T02:50:43.875Z,178.90
2018-12-31T02:51:43.891Z,163.80
2018-12-31T02:52:43.857Z,131.30
2018-12-31T02:53:43.847Z,195.80
2018-12-31T02:54:43.833Z,152.20
2018-12-31T02:55:43.822Z,151.60
2018-12-31T02:56:43.811Z,173.30
2018-12-31T02:57:43.815Z,114.80
2018-12-31T02:58:43.789Z,152.70
2018-12-31T02:59:43.780Z,131.00
2018-12-31T03:00:43.771Z,155.00
2018-12-31T03:01:43.776Z,125.20
2018-12-31T03:02:43.758Z,152.10
2018-12-31T03:03:43.749Z,121.20
2018-12-31T03:04:43.733Z,110.00
2018-12-31T03:05:43.718Z,151.60
2018-12-31T03:06:43.756Z,120.80
2018-12-31T03:07:43.691Z,130.80
2018-12-31T03:08:43.683Z,124.90
2018-12-31T03:09:43.691Z,118.60
2018-12-31T03:10:43.671Z,101.00
2018-12-31T03:11:43.652Z,144.50
2018-12-31T03:12:43.644Z,124.00
2018-12-31T03:13:43.632Z,118.20
2018-12-31T03:14:43.619Z,126.00
2018-12-31T03:15:43.635Z,118.60
2018-12-31T03:16:43.702Z,113.60
2018-12-31T03:17:43.589Z,108.10
2018-12-31T03:18:43.576Z,106.70
2018-12-31T03:19:43.562Z,101.10
2018-12-31T03:20:43.550Z,95.90
2018-12-31T03:21:43.557Z,114.60
2018-12-31T03:22:43.530Z,119.20
2018-12-31T03:23:43.526Z,114.20
2018-12-31T03:24:43.514Z,85.00
2018-12-31T03:25:43.504Z,90.50
2018-12-31T03:26:43.514Z,93.60
2018-12-31T03:27:43.476Z,91.80
2018-12-31T03:28:43.466Z,86.70
2018-12-31T03:29:43.453Z,92.40
2018-12-31T03:30:43.457Z,81.50
2018-12-31T03:31:43.437Z,93.10
2018-12-31T03:32:43.450Z,91.50
2018-12-31T03:33:43.413Z,97.80
2018-12-31T03:34:43.403Z,93.50
2018-12-31T03:35:43.398Z,92.10
2018-12-31T03:36:43.405Z,98.00
2018-12-31T03:37:43.410Z,119.70
2018-12-31T03:38:43.362Z,115.40
2018-12-31T03:39:43.347Z,97.60
2018-12-31T03:40:43.337Z,108.20
2018-12-31T03:41:43.325Z,188.30
2018-12-31T03:42:43.323Z,110.40
2018-12-31T03:43:43.330Z,108.30
2018-12-31T03:44:43.303Z,88.00
2018-12-31T03:45:43.291Z,157.00
2018-12-31T03:46:43.279Z,90.30
2018-12-31T03:47:43.263Z,102.10
2018-12-31T03:48:43.268Z,86.80
2018-12-31T03:49:43.247Z,113.90
2018-12-31T03:50:43.239Z,116.30
2018-12-31T03:51:43.232Z,84.90
2018-12-31T03:52:43.230Z,101.90
2018-12-31T03:53:43.204Z,104.90
2018-12-31T03:54:43.189Z,102.00
2018-12-31T03:55:43.177Z,98.70
2018-12-31T03:56:43.170Z,130.90
2018-12-31T03:57:43.189Z,112.20
2018-12-31T03:58:43.164Z,103.50
2018-12-31T03:59:43.150Z,96.50
2018-12-31T04:00:43.121Z,88.20
2018-12-31T04:01:43.111Z,108.00
2018-12-31T04:02:43.103Z,99.00
2018-12-31T04:03:43.101Z,105.70
2018-12-31T04:04:43.104Z,115.80
2018-12-31T04:05:43.066Z,94.40
2018-12-31T04:06:43.060Z,96.70
2018-12-31T04:07:43.077Z,108.30
2018-12-31T04:08:43.041Z,94.50
2018-12-31T04:09:43.030Z,102.50
2018-12-31T04:10:43.036Z,103.90
2018-12-31T04:11:43.038Z,105.60
2018-12-31T04:12:43.013Z,115.90
2018-12-31T04:13:42.982Z,112.30
2018-12-31T04:14:42.971Z,97.00
2018-12-31T04:15:42.974Z,126.40
2018-12-31T04:16:42.956Z,120.00
2018-12-31T04:17:42.970Z,100.10
2018-12-31T04:18:42.938Z,116.90
2018-12-31T04:19:42.918Z,118.60
2018-12-31T04:20:42.905Z,125.70
2018-12-31T04:21:42.907Z,120.40
2018-12-31T04:22:42.905Z,129.20
2018-12-31T04:23:42.976Z,158.30
2018-12-31T04:24:43.793Z,145.70
2018-12-31T04:25:42.853Z,137.00
2018-12-31T04:26:42.843Z,131.80
2018-12-31T04:27:42.844Z,123.30
2018-12-31T04:28:42.951Z,136.30
2018-12-31T04:29:42.821Z,154.00
2018-12-31T04:30:42.803Z,157.90
2018-12-31T04:31:42.793Z,145.30
2018-12-31T04:32:42.778Z,140.30
2018-12-31T04:33:42.793Z,125.80
2018-12-31T04:34:42.777Z,255.70
2018-12-31T04:35:42.754Z,165.30
2018-12-31T04:36:42.740Z,202.70
2018-12-31T04:37:42.726Z,224.90
2018-12-31T04:38:42.714Z,193.10
2018-12-31T04:39:43.948Z,218.50
2018-12-31T04:40:42.712Z,201.40
2018-12-31T04:41:42.689Z,248.90
2018-12-31T04:42:42.681Z,242.90
2018-12-31T04:43:42.662Z,256.00
2018-12-31T04:44:42.648Z,316.70
2018-12-31T04:45:42.653Z,289.10
2018-12-31T04:46:42.635Z,332.90
2018-12-31T04:47:42.631Z,282.20
2018-12-31T04:48:42.609Z,356.60
2018-12-31T04:49:42.636Z,376.30
2018-12-31T04:50:42.585Z,315.00
2018-12-31T04:51:42.582Z,368.10
2018-12-31T04:52:42.579Z,325.00
2018-12-31T04:53:42.555Z,437.10
2018-12-31T04:54:42.542Z,304.60
2018-12-31T04:55:44.520Z,328.70
2018-12-31T04:56:42.539Z,368.70
2018-12-31T04:57:42.509Z,364.30
2018-12-31T04:58:42.522Z,389.40
2018-12-31T04:59:43.698Z,362.00
2018-12-31T05:00:42.493Z,387.80
2018-12-31T05:01:42.470Z,331.00
2018-12-31T05:02:42.456Z,389.10
2018-12-31T05:03:42.443Z,351.00
2018-12-31T05:04:42.457Z,362.80
2018-12-31T05:05:42.422Z,382.60
2018-12-31T05:06:42.420Z,447.10
2018-12-31T05:07:42.403Z,413.80
2018-12-31T05:08:42.431Z,397.70
2018-12-31T05:09:42.408Z,395.80
2018-12-31T05:10:42.401Z,442.40
2018-12-31T05:11:42.372Z,395.10
2018-12-31T05:12:42.351Z,449.20
2018-12-31T05:13:42.341Z,425.90
2018-12-31T05:14:42.331Z,406.00
2018-12-31T05:15:42.313Z,396.00
2018-12-31T05:16:42.331Z,392.10
2018-12-31T05:17:42.299Z,399.40
2018-12-31T05:18:42.292Z,469.80
2018-12-31T05:19:42.295Z,393.20
2018-12-31T05:20:42.308Z,411.10
2018-12-31T05:21:42.254Z,415.30
2018-12-31T05:22:42.255Z,421.60
2018-12-31T05:23:42.257Z,420.30
2018-12-31T05:24:42.214Z,439.30
2018-12-31T05:25:42.211Z,491.00
2018-12-31T05:26:42.197Z,491.80
2018-12-31T05:27:42.193Z,469.50
2018-12-31T05:28:42.179Z,457.80
2018-12-31T05:29:42.206Z,433.50
2018-12-31T05:30:42.153Z,469.90
2018-12-31T05:31:42.144Z,472.00
2018-12-31T05:32:42.136Z,403.80
2018-12-31T05:33:42.124Z,336.50
2018-12-31T05:34:42.120Z,446.80
2018-12-31T05:35:42.123Z,472.30
2018-12-31T05:36:42.085Z,415.60
2018-12-31T05:37:42.077Z,488.80
2018-12-31T05:38:42.083Z,437.50
2018-12-31T05:39:42.077Z,491.50
2018-12-31T05:40:42.052Z,441.60
2018-12-31T05:41:42.056Z,440.80
2018-12-31T05:42:42.028Z,451.90
2018-12-31T05:43:42.015Z,459.50
2018-12-31T05:44:42.008Z,521.40
2018-12-31T05:45:41.998Z,480.40
2018-12-31T05:46:41.994Z,568.30
2018-12-31T05:47:41.996Z,407.00
2018-12-31T05:48:46.629Z,373.90
2018-12-31T05:49:41.973Z,385.80
2018-12-31T05:50:41.938Z,441.80
2018-12-31T05:51:41.930Z,445.40
2018-12-31T05:52:41.938Z,497.20
2018-12-31T05:53:41.909Z,480.90
2018-12-31T05:54:41.899Z,453.90
2018-12-31T05:55:41.884Z,490.20
2018-12-31T05:56:41.874Z,413.30
2018-12-31T05:57:41.890Z,429.10
2018-12-31T05:58:41.864Z,436.00
2018-12-31T05:59:41.842Z,384.30
2018-12-31T06:00:42.193Z,298.40
2018-12-31T06:01:41.819Z,371.00
2018-12-31T06:02:41.849Z,332.40
2018-12-31T06:03:41.850Z,353.90
2018-12-31T06:04:41.807Z,327.50
2018-12-31T06:05:41.798Z,434.60
2018-12-31T06:06:41.782Z,435.80
2018-12-31T06:07:41.754Z,379.00
2018-12-31T06:08:41.748Z,340.30
2018-12-31T06:09:41.733Z,291.50
2018-12-31T06:10:41.839Z,332.90
2018-12-31T06:11:42.902Z,300.40
2018-12-31T06:12:41.707Z,333.20
2018-12-31T06:13:41.693Z,318.20
2018-12-31T06:14:41.690Z,320.40
2018-12-31T06:15:41.682Z,265.80
2018-12-31T06:16:41.690Z,232.00
2018-12-31T06:17:41.649Z,302.00
2018-12-31T06:18:41.646Z,269.80
2018-12-31T06:19:41.625Z,273.30
2018-12-31T06:20:41.623Z,239.10
2018-12-31T06:21:41.604Z,280.20
2018-12-31T06:22:41.624Z,235.90
2018-12-31T06:23:41.589Z,254.60
2018-12-31T06:24:41.796Z,254.50
2018-12-31T06:25:41.562Z,316.00
2018-12-31T06:26:41.556Z,268.90
2018-12-31T06:27:41.535Z,220.70
2018-12-31T06:28:41.628Z,224.90
2018-12-31T06:29:41.521Z,250.60
2018-12-31T06:30:41.536Z,252.50
2018-12-31T06:31:41.492Z,245.30
2018-12-31T06:32:41.517Z,466.80
2018-12-31T06:33:41.473Z,326.50
2018-12-31T06:34:41.474Z,244.10
2018-12-31T06:35:41.456Z,428.30
2018-12-31T06:36:41.444Z,337.00
2018-12-31T06:37:41.433Z,361.80
2018-12-31T06:38:41.447Z,219.00
2018-12-31T06:39:41.408Z,392.20
2018-12-31T06:40:41.398Z,246.30
2018-12-31T06:41:41.412Z,220.00
2018-12-31T06:42:41.374Z,287.40
2018-12-31T06:43:41.370Z,256.20
2018-12-31T06:44:41.647Z,237.20
2018-12-31T06:45:41.897Z,285.20
2018-12-31T06:46:41.411Z,283.50
2018-12-31T06:47:41.355Z,237.20
2018-12-31T06:48:41.317Z,274.00
2018-12-31T06:49:41.360Z,258.00
2018-12-31T06:50:41.340Z,377.20
2018-12-31T06:51:41.278Z,287.60
2018-12-31T06:52:41.386Z,236.60
2018-12-31T06:53:41.279Z,351.10
2018-12-31T06:54:41.300Z,282.00
2018-12-31T06:55:41.240Z,240.00
2018-12-31T06:56:41.433Z,340.10
2018-12-31T06:57:41.216Z,337.90
2018-12-31T06:58:41.215Z,358.00
2018-12-31T06:59:41.191Z,195.20
2018-12-31T07:00:41.182Z,352.60
2018-12-31T07:01:41.190Z,200.60
2018-12-31T07:02:41.167Z,272.10
2018-12-31T07:03:41.145Z,279.50
2018-12-31T07:04:41.365Z,363.00
2018-12-31T07:05:41.129Z,276.50
2018-12-31T07:06:41.153Z,262.70
2018-12-31T07:07:41.110Z,308.70
2018-12-31T07:08:41.099Z,246.70
2018-12-31T07:09:41.086Z,298.40
2018-12-31T07:10:41.077Z,348.70
2018-12-31T07:11:41.065Z,199.10
2018-12-31T07:12:41.072Z,223.10
2018-12-31T07:13:41.040Z,264.70
2018-12-31T07:14:41.033Z,291.40
2018-12-31T07:15:41.037Z,344.60
2018-12-31T07:16:41.036Z,277.50
2018-12-31T07:17:41.006Z,405.50
2018-12-31T07:18:40.984Z,235.10
2018-12-31T07:19:40.981Z,235.70
2018-12-31T07:20:40.966Z,220.70
2018-12-31T07:21:40.962Z,343.90
2018-12-31T07:22:40.972Z,281.70
2018-12-31T07:23:40.929Z,289.60
2018-12-31T07:24:40.923Z,309.30
2018-12-31T07:25:40.910Z,309.40
2018-12-31T07:26:40.902Z,239.30
2018-12-31T07:27:40.895Z,244.70
2018-12-31T07:28:40.898Z,222.20
2018-12-31T07:29:40.877Z,277.20
2018-12-31T07:30:40.862Z,231.10
2018-12-31T07:31:40.849Z,235.00
2018-12-31T07:32:40.858Z,276.40
2018-12-31T07:33:40.873Z,201.70
2018-12-31T07:34:40.853Z,258.70
2018-12-31T07:35:40.806Z,253.30
2018-12-31T07:36:40.797Z,220.50
2018-12-31T07:37:40.800Z,333.90
2018-12-31T07:38:40.768Z,209.10
2018-12-31T07:39:40.782Z,340.90
2018-12-31T07:40:40.754Z,307.70
2018-12-31T07:41:40.745Z,201.40
2018-12-31T07:42:40.731Z,260.00
2018-12-31T07:43:40.738Z,236.70
2018-12-31T07:44:40.734Z,400.90
2018-12-31T07:45:40.694Z,293.50
2018-12-31T07:46:40.682Z,284.50
2018-12-31T07:47:40.681Z,370.10
2018-12-31T07:48:40.668Z,334.10
2018-12-31T07:49:40.731Z,212.70
2018-12-31T07:50:40.639Z,259.30
2018-12-31T07:51:40.636Z,302.90
2018-12-31T07:52:40.624Z,206.70
2018-12-31T07:53:40.613Z,248.30
2018-12-31T07:54:40.627Z,336.60
2018-12-31T07:55:40.665Z,247.10
2018-12-31T07:56:40.578Z,178.90
2018-12-31T07:57:47.602Z,241.20
2018-12-31T07:58:40.576Z,307.90
2018-12-31T07:59:40.550Z,268.80
2018-12-31T08:00:40.551Z,264.10
2018-12-31T08:01:40.549Z,227.70
2018-12-31T08:02:40.513Z,320.90
2018-12-31T08:03:40.504Z,193.00
2018-12-31T08:04:40.500Z,230.20
2018-12-31T08:05:40.475Z,187.30
2018-12-31T08:06:40.474Z,218.90
2018-12-31T08:07:40.478Z,291.90
2018-12-31T08:08:40.446Z,190.20
2018-12-31T08:09:40.470Z,149.20
2018-12-31T08:10:40.504Z,229.30
2018-12-31T08:11:40.444Z,215.70
2018-12-31T08:12:40.408Z,231.50
2018-12-31T08:13:40.458Z,232.00
2018-12-31T08:14:40.382Z,173.20
2018-12-31T08:15:40.371Z,217.10
2018-12-31T08:16:43.109Z,167.80
2018-12-31T08:17:40.370Z,190.00
2018-12-31T08:18:40.346Z,150.80
2018-12-31T08:19:40.335Z,192.00
2018-12-31T08:20:40.314Z,177.20
2018-12-31T08:21:40.358Z,189.80
2018-12-31T08:22:40.326Z,228.30
2018-12-31T08:23:40.303Z,172.50
2018-12-31T08:24:40.277Z,146.90
2018-12-31T08:25:40.263Z,175.90
2018-12-31T08:26:40.258Z,284.20
2018-12-31T08:27:40.241Z,209.60
2018-12-31T08:28:40.264Z,154.40
2018-12-31T08:29:40.232Z,157.60
2018-12-31T08:30:40.215Z,217.60
2018-12-31T08:31:40.245Z,111.10
2018-12-31T08:32:40.202Z,170.30
2018-12-31T08:33:40.177Z,177.90
2018-12-31T08:34:40.182Z,156.40
2018-12-31T08:35:40.159Z,199.50
2018-12-31T08:36:40.210Z,215.50
2018-12-31T08:37:40.183Z,181.50
2018-12-31T08:38:40.209Z,147.20
2018-12-31T08:39:40.110Z,192.50
2018-12-31T08:40:40.142Z,145.30
2018-12-31T08:41:40.094Z,134.80
2018-12-31T08:42:40.084Z,266.20
2018-12-31T08:43:40.071Z,118.70
2018-12-31T08:44:40.944Z,216.90
2018-12-31T08:45:40.048Z,153.70
2018-12-31T08:46:40.036Z,236.20
2018-12-31T08:47:40.024Z,169.50
2018-12-31T08:48:40.012Z,146.00
2018-12-31T08:49:40.044Z,157.30
2018-12-31T08:50:39.999Z,122.40
2018-12-31T08:51:39.983Z,134.30
2018-12-31T08:52:39.968Z,132.50
2018-12-31T08:53:39.964Z,227.70
2018-12-31T08:54:39.952Z,127.30
2018-12-31T08:55:39.959Z,119.40
2018-12-31T08:56:39.934Z,157.60
2018-12-31T08:57:39.943Z,150.10
2018-12-31T08:58:39.961Z,150.20
2018-12-31T08:59:39.973Z,163.50
2018-12-31T09:00:39.884Z,128.10
2018-12-31T09:01:39.897Z,138.20
2018-12-31T09:02:39.864Z,162.00
2018-12-31T09:03:39.855Z,102.40
2018-12-31T09:04:39.865Z,189.90
2018-12-31T09:05:39.827Z,136.10
2018-12-31T09:06:39.850Z,131.40
2018-12-31T09:07:39.811Z,124.30
2018-12-31T09:08:39.806Z,117.20
2018-12-31T09:09:39.783Z,197.60
2018-12-31T09:10:39.791Z,129.20
2018-12-31T09:11:39.769Z,122.90
2018-12-31T09:12:39.778Z,112.80
2018-12-31T09:13:39.759Z,179.80
2018-12-31T09:14:39.736Z,155.70
2018-12-31T09:15:39.723Z,118.80
2018-12-31T09:16:39.724Z,115.10
2018-12-31T09:17:39.715Z,120.60
2018-12-31T09:18:39.767Z,139.00
2018-12-31T09:19:39.754Z,185.70
2018-12-31T09:20:39.664Z,143.20
2018-12-31T09:21:39.670Z,100.70
2018-12-31T09:22:39.646Z,209.70
2018-12-31T09:23:39.640Z,113.20
2018-12-31T09:24:44.576Z,107.10
2018-12-31T09:25:40.639Z,199.30
2018-12-31T09:26:39.604Z,159.50
2018-12-31T09:27:39.597Z,167.90
2018-12-31T09:28:39.588Z,218.70
2018-12-31T09:29:39.568Z,128.20
2018-12-31T09:30:39.559Z,116.10
2018-12-31T09:31:39.671Z,135.10
2018-12-31T09:32:39.548Z,143.20
2018-12-31T09:33:39.533Z,193.20
2018-12-31T09:34:39.525Z,127.40
2018-12-31T09:35:39.508Z,103.70
2018-12-31T09:36:39.518Z,139.60
2018-12-31T09:37:39.482Z,134.10
2018-12-31T09:38:39.476Z,186.90
2018-12-31T09:39:39.517Z,246.30
2018-12-31T09:40:39.517Z,225.50
2018-12-31T09:41:39.440Z,199.70
2018-12-31T09:42:39.449Z,189.90
2018-12-31T09:43:39.425Z,146.40
2018-12-31T09:44:39.411Z,124.20
2018-12-31T09:45:39.425Z,111.20
2018-12-31T09:46:39.392Z,171.10
2018-12-31T09:47:39.403Z,127.60
2018-12-31T09:48:39.369Z,147.60
2018-12-31T09:49:39.353Z,152.90
2018-12-31T09:50:39.347Z,137.00
2018-12-31T09:51:39.333Z,158.80
2018-12-31T09:52:39.320Z,151.20
2018-12-31T09:53:39.334Z,183.50
2018-12-31T09:54:39.305Z,158.90
2018-12-31T09:55:39.299Z,130.60
2018-12-31T09:56:39.281Z,156.50
2018-12-31T09:57:39.333Z,147.00
2018-12-31T09:58:39.284Z,186.80
2018-12-31T09:59:39.286Z,122.90
2018-12-31T10:00:39.297Z,149.40
2018-12-31T10:01:39.313Z,176.80
2018-12-31T10:02:39.215Z,205.10
2018-12-31T10:03:39.206Z,134.10
2018-12-31T10:04:39.192Z,127.00
2018-12-31T10:05:39.191Z,148.20
2018-12-31T10:06:39.195Z,242.80
2018-12-31T10:07:39.175Z,335.90
2018-12-31T10:08:39.255Z,204.70
2018-12-31T10:09:39.144Z,184.20
2018-12-31T10:10:39.129Z,113.50
2018-12-31T10:11:39.121Z,120.60
2018-12-31T10:12:39.111Z,211.20
2018-12-31T10:13:39.111Z,91.40
2018-12-31T10:14:39.085Z,128.80
2018-12-31T10:15:39.079Z,104.00
2018-12-31T10:16:39.062Z,230.10
2018-12-31T10:17:39.056Z,115.20
2018-12-31T10:18:39.068Z,80.70
2018-12-31T10:19:39.030Z,85.70
2018-12-31T10:20:39.019Z,132.70
2018-12-31T10:21:41.160Z,100.90
2018-12-31T10:22:39.056Z,127.30
2018-12-31T10:23:38.990Z,74.70
2018-12-31T10:24:38.980Z,118.60
2018-12-31T10:25:38.963Z,133.30
2018-12-31T10:26:38.971Z,142.80
2018-12-31T10:27:38.945Z,87.40
2018-12-31T10:28:38.994Z,131.60
2018-12-31T10:29:38.947Z,84.50
2018-12-31T10:30:38.916Z,135.50
2018-12-31T10:31:38.900Z,167.40
2018-12-31T10:32:38.901Z,85.60
2018-12-31T10:33:38.883Z,94.80
2018-12-31T10:34:38.879Z,108.60
2018-12-31T10:35:38.878Z,80.00
2018-12-31T10:36:38.899Z,83.20
2018-12-31T10:37:38.871Z,97.80
2018-12-31T10:38:38.826Z,109.70
2018-12-31T10:39:38.817Z,117.60
2018-12-31T10:40:38.809Z,79.00
2018-12-31T10:41:38.799Z,92.40
2018-12-31T10:42:38.830Z,91.40
2018-12-31T10:43:38.843Z,99.40
2018-12-31T10:44:38.760Z,137.50
2018-12-31T10:45:38.757Z,89.40
2018-12-31T10:46:38.742Z,92.40
2018-12-31T10:47:38.748Z,80.90
2018-12-31T10:48:38.723Z,110.00
2018-12-31T10:49:38.732Z,104.60
2018-12-31T10:50:38.697Z,98.70
2018-12-31T10:51:38.702Z,92.10
2018-12-31T10:52:38.694Z,113.50
2018-12-31T10:53:38.689Z,99.90
2018-12-31T10:54:38.658Z,87.80
2018-12-31T10:55:38.648Z,110.50
2018-12-31T10:56:38.665Z,93.10
2018-12-31T10:57:38.618Z,91.40
2018-12-31T10:58:38.608Z,95.00
2018-12-31T10:59:38.643Z,101.40
2018-12-31T11:00:38.591Z,107.50
2018-12-31T11:01:38.581Z,147.00
2018-12-31T11:02:38.587Z,84.10
2018-12-31T11:03:38.565Z,117.90
2018-12-31T11:04:38.633Z,114.50
2018-12-31T11:05:38.538Z,112.10
2018-12-31T11:06:38.526Z,133.10
2018-12-31T11:07:38.560Z,106.70
2018-12-31T11:08:38.510Z,116.70
2018-12-31T11:09:38.492Z,82.10
2018-12-31T11:10:38.479Z,100.80
2018-12-31T11:11:38.469Z,82.40
2018-12-31T11:12:38.462Z,74.60
2018-12-31T11:13:38.477Z,101.60
2018-12-31T11:14:38.446Z,86.70
2018-12-31T11:15:38.429Z,110.00
2018-12-31T11:16:38.414Z,75.40
2018-12-31T11:17:38.439Z,96.20
2018-12-31T11:18:38.451Z,94.20
2018-12-31T11:19:38.408Z,84.30
2018-12-31T11:20:38.387Z,81.90
2018-12-31T11:21:38.366Z,117.50
2018-12-31T11:22:38.354Z,66.30
2018-12-31T11:23:38.358Z,64.70
2018-12-31T11:24:38.358Z,79.30
2018-12-31T11:25:38.381Z,73.90
2018-12-31T11:26:38.311Z,81.50
2018-12-31T11:27:38.301Z,56.90
2018-12-31T11:28:38.319Z,61.90
2018-12-31T11:29:38.273Z,68.70
2018-12-31T11:30:38.265Z,84.40
2018-12-31T11:31:38.258Z,73.90
2018-12-31T11:32:38.248Z,78.70
2018-12-31T11:33:38.233Z,90.30
2018-12-31T11:34:38.239Z,57.50
2018-12-31T11:35:38.211Z,55.50
2018-12-31T11:36:38.197Z,65.50
2018-12-31T11:37:38.195Z,67.30
2018-12-31T11:38:38.199Z,72.90
2018-12-31T11:39:38.197Z,62.60
2018-12-31T11:40:38.163Z,67.60
2018-12-31T11:41:38.148Z,69.40
2018-12-31T11:42:38.136Z,73.20
2018-12-31T11:43:38.124Z,82.30
2018-12-31T11:44:38.120Z,67.90
2018-12-31T11:45:38.181Z,70.80
2018-12-31T11:46:38.142Z,60.80
2018-12-31T11:47:38.084Z,104.50
2018-12-31T11:48:38.075Z,94.10
2018-12-31T11:49:38.063Z,74.20
2018-12-31T11:50:38.056Z,69.60
2018-12-31T11:51:38.078Z,74.30
2018-12-31T11:52:38.031Z,72.60
2018-12-31T11:53:38.040Z,69.00
2018-12-31T11:54:39.332Z,74.70
2018-12-31T11:55:37.998Z,107.70
2018-12-31T11:56:37.983Z,74.30
2018-12-31T11:57:37.977Z,86.80
2018-12-31T11:58:37.965Z,93.50
2018-12-31T11:59:37.982Z,63.60
2018-12-31T12:00:37.946Z,95.50
2018-12-31T12:01:37.929Z,100.60
2018-12-31T12:02:37.996Z,99.20
2018-12-31T12:03:37.933Z,135.50
2018-12-31T12:04:37.905Z,99.70
2018-12-31T12:05:37.905Z,72.20
2018-12-31T12:06:37.909Z,219.80
2018-12-31T12:07:37.917Z,97.40
2018-12-31T12:08:37.879Z,76.20
2018-12-31T12:09:37.863Z,88.90
2018-12-31T12:10:37.837Z,133.10
2018-12-31T12:11:37.839Z,115.60
2018-12-31T12:12:37.816Z,163.90
2018-12-31T12:13:37.800Z,98.20
2018-12-31T12:14:37.811Z,113.60
2018-12-31T12:15:37.786Z,101.00
2018-12-31T12:16:37.769Z,81.00
2018-12-31T12:17:37.765Z,89.60
2018-12-31T12:18:37.757Z,113.80
2018-12-31T12:19:37.765Z,96.60
2018-12-31T12:20:37.730Z,84.90
2018-12-31T12:21:37.720Z,96.40
2018-12-31T12:22:37.707Z,89.00
2018-12-31T12:23:37.696Z,73.50
2018-12-31T12:24:37.692Z,84.30
2018-12-31T12:25:37.716Z,79.00
2018-12-31T12:26:37.665Z,69.10
2018-12-31T12:27:37.757Z,100.90
2018-12-31T12:28:37.729Z,71.80
2018-12-31T12:29:37.736Z,69.90
2018-12-31T12:30:37.629Z,96.40
2018-12-31T12:31:37.612Z,86.60
2018-12-31T12:32:37.614Z,74.90
2018-12-31T12:33:38.467Z,63.40